Time;durP1;ratioP1;P1;durP2;ratioP2;P2;SDS_P1;SDS_P2;PMS_P1;PMS_P2;Temp;Humidity;BMP_temperature;BMP_pressure;BME280_temperature;BME280_humidity;BME280_pressure;Samples;Min_cycle;Max_cycle;Signal;HPM_P1;HPM_P2
2022/12/02 00:01:48;;;;;;;62.80;37.63;;;7.30;97.00;;;;;;5063873;28;20200;-67
2022/12/02 00:04:21;;;;;;;60.97;37.43;;;7.30;97.30;;;;;;5064057;28;20627;-66
2022/12/02 00:06:50;;;;;;;59.37;35.47;;;7.30;96.90;;;;;;5062798;28;20229;-67
2022/12/02 00:09:28;;;;;;;61.37;36.40;;;7.30;96.90;;;;;;5062742;28;20639;-66
2022/12/02 00:11:57;;;;;;;61.93;36.17;;;7.30;96.80;;;;;;5060712;28;20238;-67
2022/12/02 00:14:28;;;;;;;62.70;38.13;;;7.30;96.80;;;;;;5064272;28;20194;-67
2022/12/02 00:16:56;;;;;;;62.13;38.73;;;7.30;96.80;;;;;;5061797;28;20190;-67
2022/12/02 00:19:23;;;;;;;72.23;38.47;;;7.30;96.80;;;;;;5059595;28;20543;-66
2022/12/02 00:21:51;;;;;;;66.13;40.10;;;7.30;96.80;;;;;;5061735;28;20198;-67
2022/12/02 00:24:18;;;;;;;65.03;38.43;;;7.30;96.80;;;;;;5064494;28;20190;-67
2022/12/02 00:26:46;;;;;;;65.00;40.13;;;7.30;96.70;;;;;;5065280;28;20197;-67
2022/12/02 00:29:13;;;;;;;66.97;38.67;;;7.30;96.70;;;;;;5059527;28;20199;-68
2022/12/02 00:31:40;;;;;;;72.60;38.63;;;7.30;96.70;;;;;;5060929;28;20255;-67
2022/12/02 00:34:07;;;;;;;65.13;38.77;;;7.30;96.70;;;;;;5060599;28;20193;-67
2022/12/02 00:36:34;;;;;;;63.63;38.23;;;7.30;96.70;;;;;;5065478;28;20199;-66
2022/12/02 00:39:03;;;;;;;63.97;38.63;;;7.30;96.70;;;;;;5060065;28;20202;-67
2022/12/02 00:41:30;;;;;;;70.13;37.20;;;7.30;96.70;;;;;;5065722;28;20214;-66
2022/12/02 00:46:43;;;;;;;60.03;37.13;;;7.30;96.70;;;;;;5061321;28;20293;-67
2022/12/02 00:49:13;;;;;;;65.30;38.07;;;7.30;96.70;;;;;;5067344;28;20201;-67
2022/12/02 00:51:41;;;;;;;61.77;36.50;;;7.30;96.70;;;;;;5062284;28;20194;-67
2022/12/02 00:54:09;;;;;;;62.17;37.00;;;7.30;96.70;;;;;;5061413;28;20214;-67
2022/12/02 00:56:36;;;;;;;66.07;38.30;;;7.40;96.70;;;;;;5066133;28;20206;-67
2022/12/02 00:59:03;;;;;;;68.63;37.97;;;7.30;96.70;;;;;;5064681;28;20203;-67
2022/12/02 01:01:31;;;;;;;62.20;37.67;;;7.30;96.70;;;;;;5059662;28;20201;-67
2022/12/02 01:03:58;;;;;;;65.33;36.37;;;7.30;96.80;;;;;;5063674;28;20234;-66
2022/12/02 01:06:26;;;;;;;66.87;36.90;;;7.40;96.80;;;;;;5059831;28;20207;-66
2022/12/02 01:08:53;;;;;;;60.33;35.93;;;7.40;96.70;;;;;;5065633;28;20215;-67
2022/12/02 01:11:20;;;;;;;66.20;37.73;;;7.40;96.70;;;;;;5057087;28;20241;-67
2022/12/02 01:13:47;;;;;;;58.20;35.97;;;7.40;96.70;;;;;;5063539;28;20223;-66
2022/12/02 01:16:14;;;;;;;60.87;35.20;;;7.40;96.90;;;;;;5062150;28;20195;-66
2022/12/02 01:18:41;;;;;;;58.70;36.60;;;7.40;96.60;;;;;;5077836;28;20217;-67
2022/12/02 01:21:08;;;;;;;66.23;36.57;;;7.40;96.60;;;;;;5062439;28;20194;-67
2022/12/02 01:23:35;;;;;;;66.87;37.33;;;7.40;96.70;;;;;;5070309;28;20206;-67
2022/12/02 01:26:02;;;;;;;58.83;35.40;;;7.40;96.70;;;;;;5065039;28;20293;-67
2022/12/02 01:28:32;;;;;;;60.27;34.03;;;7.40;96.70;;;;;;5052954;28;20206;-66
2022/12/02 01:31:00;;;;;;;53.53;34.10;;;7.40;97.00;;;;;;5058438;28;20197;-66
2022/12/02 01:33:27;;;;;;;52.37;33.07;;;7.40;96.80;;;;;;5061855;28;20255;-66
2022/12/02 01:35:54;;;;;;;50.30;29.87;;;7.40;96.80;;;;;;5064715;28;20254;-66
2022/12/02 01:38:21;;;;;;;48.00;29.03;;;7.40;96.80;;;;;;5059474;28;20226;-66
2022/12/02 01:40:48;;;;;;;44.30;27.23;;;7.50;96.90;;;;;;5064121;28;20201;-67
2022/12/02 01:43:16;;;;;;;44.17;25.70;;;7.50;96.90;;;;;;5060686;28;20206;-66
2022/12/02 01:45:43;;;;;;;41.27;25.10;;;7.50;96.90;;;;;;5061915;28;20539;-66
2022/12/02 01:48:10;;;;;;;42.53;25.80;;;7.50;96.90;;;;;;5067291;28;20640;-67
2022/12/02 01:50:38;;;;;;;36.83;23.20;;;7.50;97.00;;;;;;5063231;28;20239;-66
2022/12/02 01:53:05;;;;;;;35.67;24.40;;;7.50;96.90;;;;;;5062325;28;20275;-69
2022/12/02 01:55:32;;;;;;;39.30;25.23;;;7.50;96.90;;;;;;5066897;28;20212;-66
2022/12/02 01:57:59;;;;;;;40.70;24.40;;;7.60;97.00;;;;;;5055522;28;20332;-66
2022/12/02 02:00:27;;;;;;;39.03;25.97;;;7.60;97.00;;;;;;5068746;28;20288;-66
2022/12/02 02:02:55;;;;;;;38.13;22.73;;;7.60;96.90;;;;;;5068853;28;20215;-66
2022/12/02 02:05:28;;;;;;;39.27;21.67;;;7.60;96.90;;;;;;5068710;28;20255;-67
2022/12/02 02:08:04;;;;;;;32.27;20.97;;;7.60;96.90;;;;;;5056166;28;20664;-66
2022/12/02 02:10:33;;;;;;;35.17;19.83;;;7.60;96.90;;;;;;5066529;28;20341;-68
2022/12/02 02:13:01;;;;;;;26.17;18.17;;;7.70;96.90;;;;;;5070846;28;20261;-66
2022/12/02 02:15:29;;;;;;;26.47;18.97;;;7.70;96.90;;;;;;5067300;28;20245;-66
2022/12/02 02:17:57;;;;;;;26.30;19.53;;;7.70;96.80;;;;;;5067331;28;20690;-66
2022/12/02 02:20:32;;;;;;;27.37;18.03;;;7.70;96.80;;;;;;5070433;28;20703;-66
2022/12/02 02:23:05;;;;;;;25.30;18.20;;;7.70;96.80;;;;;;5073278;28;20213;-66
2022/12/02 02:25:46;;;;;;;28.63;17.87;;;7.70;96.80;;;;;;5081994;28;20202;-66
2022/12/02 02:28:17;;;;;;;25.63;17.43;;;7.80;96.80;;;;;;5070313;28;20220;-66
2022/12/02 02:30:45;;;;;;;24.87;17.83;;;7.80;96.80;;;;;;5072870;28;20232;-67
2022/12/02 02:33:14;;;;;;;27.83;17.23;;;7.80;96.70;;;;;;5062702;28;20268;-66
2022/12/02 02:35:42;;;;;;;22.93;16.17;;;7.80;96.70;;;;;;5065304;28;20194;-67
2022/12/02 02:38:13;;;;;;;25.60;16.60;;;7.80;96.70;;;;;;5069840;28;20707;-67
2022/12/02 02:40:44;;;;;;;23.80;16.80;;;7.80;96.70;;;;;;5071715;28;20198;-66
2022/12/02 02:43:12;;;;;;;26.30;17.10;;;7.80;96.70;;;;;;5079210;28;20207;-67
2022/12/02 02:45:42;;;;;;;22.97;16.27;;;7.80;96.70;;;;;;5073542;28;20285;-67
2022/12/02 02:48:12;;;;;;;22.23;12.87;;;7.80;96.70;;;;;;5076890;28;20264;-66
2022/12/02 02:50:43;;;;;;;20.63;14.47;;;7.80;96.60;;;;;;5058672;28;20577;-66
2022/12/02 02:53:14;;;;;;;20.10;12.90;;;7.80;96.60;;;;;;5045518;28;20214;-69
2022/12/02 02:55:42;;;;;;;21.47;14.53;;;7.90;96.60;;;;;;5062347;28;20206;-66
2022/12/02 02:58:12;;;;;;;21.07;13.60;;;7.90;96.60;;;;;;5069318;28;20204;-66
2022/12/02 03:00:44;;;;;;;18.73;12.87;;;7.90;96.60;;;;;;5063559;28;20203;-66
2022/12/02 03:03:15;;;;;;;19.67;13.00;;;7.90;96.60;;;;;;5062490;28;20210;-66
2022/12/02 03:05:44;;;;;;;16.80;12.07;;;7.90;96.60;;;;;;5069607;28;20214;-66
2022/12/02 03:08:12;;;;;;;15.07;11.33;;;7.90;96.60;;;;;;5063919;28;20693;-67
2022/12/02 03:10:39;;;;;;;15.00;10.10;;;7.90;96.50;;;;;;5065065;28;20325;-66
2022/12/02 03:13:07;;;;;;;15.77;9.90;;;7.90;96.50;;;;;;5074536;28;20240;-66
2022/12/02 03:15:34;;;;;;;14.83;10.93;;;7.90;96.50;;;;;;5065033;28;20280;-66
2022/12/02 03:18:01;;;;;;;13.27;10.40;;;7.90;96.50;;;;;;5064321;28;20529;-66
2022/12/02 03:20:29;;;;;;;16.30;10.93;;;7.90;96.50;;;;;;5061819;28;20289;-66
2022/12/02 03:22:56;;;;;;;14.30;10.37;;;7.90;96.50;;;;;;5066877;28;20209;-66
2022/12/02 03:25:23;;;;;;;17.40;11.27;;;7.90;96.50;;;;;;5061261;28;20210;-66
2022/12/02 03:27:50;;;;;;;12.37;9.53;;;7.90;96.50;;;;;;5063597;28;20653;-66
2022/12/02 03:30:17;;;;;;;15.07;10.57;;;7.90;96.40;;;;;;5061563;28;20206;-66
2022/12/02 03:32:45;;;;;;;13.77;9.23;;;7.90;96.40;;;;;;5062303;28;20194;-66
2022/12/02 03:35:12;;;;;;;11.00;8.83;;;7.90;96.40;;;;;;5065882;28;20695;-66
2022/12/02 03:37:39;;;;;;;10.33;8.70;;;7.90;96.40;;;;;;5064071;28;20202;-66
2022/12/02 03:40:07;;;;;;;10.83;8.03;;;7.90;96.40;;;;;;5059158;28;20205;-66
2022/12/02 03:42:34;;;;;;;9.47;6.63;;;7.90;96.40;;;;;;5066317;28;20212;-67
2022/12/02 03:45:02;;;;;;;9.37;6.47;;;7.90;96.40;;;;;;5062680;28;20193;-66
2022/12/02 03:47:30;;;;;;;6.23;5.63;;;7.90;96.30;;;;;;5070194;28;20194;-66
2022/12/02 03:49:57;;;;;;;8.53;6.00;;;7.90;96.10;;;;;;5061795;28;20206;-66
2022/12/02 03:52:25;;;;;;;6.07;5.47;;;7.90;96.00;;;;;;5065395;28;20191;-66
2022/12/02 03:54:52;;;;;;;5.27;4.30;;;7.90;95.90;;;;;;5065400;28;20210;-67
2022/12/02 03:57:21;;;;;;;6.20;4.80;;;7.90;95.80;;;;;;5061682;28;20537;-66
2022/12/02 03:59:49;;;;;;;4.40;3.63;;;7.90;95.70;;;;;;5059938;28;20201;-66
2022/12/02 04:02:16;;;;;;;4.93;3.73;;;7.90;95.60;;;;;;5064520;28;20644;-66
2022/12/02 04:04:43;;;;;;;5.43;3.63;;;7.90;95.60;;;;;;5062251;28;20198;-66
2022/12/02 04:07:10;;;;;;;5.10;3.73;;;7.90;95.60;;;;;;5064389;28;20526;-66
2022/12/02 04:09:37;;;;;;;3.77;3.20;;;7.90;95.70;;;;;;5065648;28;20209;-66
2022/12/02 04:12:04;;;;;;;4.20;3.13;;;7.90;95.70;;;;;;5062748;28;20234;-66
2022/12/02 04:14:31;;;;;;;4.07;3.50;;;7.90;95.70;;;;;;5069686;28;20218;-66
2022/12/02 04:16:58;;;;;;;4.70;3.80;;;8.00;95.70;;;;;;5062385;28;20194;-66
2022/12/02 04:19:32;;;;;;;4.67;3.80;;;8.00;95.50;;;;;;5063843;28;20220;-66
2022/12/02 04:21:59;;;;;;;3.80;3.30;;;8.00;95.40;;;;;;5059758;28;20195;-68
2022/12/02 04:24:27;;;;;;;4.93;3.43;;;8.00;95.30;;;;;;5062766;28;20260;-66
2022/12/02 04:26:54;;;;;;;4.47;3.40;;;8.00;95.30;;;;;;5063867;28;20198;-66
2022/12/02 04:29:21;;;;;;;4.17;3.37;;;8.00;95.30;;;;;;5062890;28;20205;-66
2022/12/02 04:31:49;;;;;;;4.20;3.27;;;8.00;95.30;;;;;;5062897;28;20241;-67
2022/12/02 04:34:16;;;;;;;4.63;3.10;;;8.00;95.30;;;;;;5059872;28;20218;-66
2022/12/02 04:36:43;;;;;;;3.63;3.07;;;8.00;95.30;;;;;;5070011;28;20213;-66
2022/12/02 04:39:10;;;;;;;5.77;4.03;;;8.00;95.30;;;;;;5058553;28;20213;-66
2022/12/02 04:41:37;;;;;;;3.53;3.17;;;8.00;95.50;;;;;;5062647;28;20194;-67
2022/12/02 04:44:04;;;;;;;4.10;3.00;;;8.00;95.30;;;;;;5061194;28;20199;-66
2022/12/02 04:46:31;;;;;;;5.00;3.50;;;8.00;95.30;;;;;;5061822;28;20202;-66
2022/12/02 04:48:59;;;;;;;3.90;3.30;;;8.00;95.30;;;;;;5059813;28;20213;-66
2022/12/02 04:51:26;;;;;;;3.53;3.23;;;8.00;95.30;;;;;;5062160;28;20208;-66
2022/12/02 04:53:53;;;;;;;3.83;3.27;;;8.00;95.40;;;;;;5057862;28;20223;-66
2022/12/02 04:56:20;;;;;;;3.40;3.10;;;8.00;95.40;;;;;;5064571;28;20208;-66
2022/12/02 04:58:47;;;;;;;5.07;3.70;;;8.00;95.40;;;;;;5066523;28;20198;-66
2022/12/02 05:01:14;;;;;;;3.73;3.13;;;8.00;95.40;;;;;;5061477;28;20256;-66
2022/12/02 05:03:41;;;;;;;3.67;3.03;;;8.00;95.30;;;;;;5063746;28;20259;-66
2022/12/02 05:06:08;;;;;;;4.87;3.50;;;8.10;95.30;;;;;;5060704;28;20233;-67
2022/12/02 05:08:35;;;;;;;3.77;3.33;;;8.10;95.30;;;;;;5055064;28;20225;-66
2022/12/02 05:11:02;;;;;;;5.13;3.10;;;8.10;95.30;;;;;;5062535;28;20286;-66
2022/12/02 05:13:29;;;;;;;4.10;3.70;;;8.10;95.30;;;;;;5061183;28;20224;-69
2022/12/02 05:15:56;;;;;;;3.20;2.87;;;8.10;95.30;;;;;;5063689;28;20675;-66
2022/12/02 05:18:23;;;;;;;4.13;3.73;;;8.10;95.30;;;;;;5061851;28;20199;-66
2022/12/02 05:20:50;;;;;;;3.53;3.17;;;8.10;95.30;;;;;;5065112;28;20210;-66
2022/12/02 05:23:17;;;;;;;4.37;3.77;;;8.10;95.30;;;;;;5060656;28;20201;-66
2022/12/02 05:25:44;;;;;;;6.20;4.17;;;8.10;95.30;;;;;;5063241;28;20649;-66
2022/12/02 05:28:11;;;;;;;5.00;4.20;;;8.10;95.20;;;;;;5058007;28;20260;-66
2022/12/02 05:30:39;;;;;;;4.87;4.00;;;8.10;95.50;;;;;;5060315;28;20206;-66
2022/12/02 05:33:06;;;;;;;6.13;4.33;;;8.10;95.20;;;;;;5059984;28;20284;-66
2022/12/02 05:35:34;;;;;;;5.00;3.97;;;8.00;95.30;;;;;;5077790;28;20593;-66
2022/12/02 05:38:01;;;;;;;4.83;4.00;;;8.10;95.40;;;;;;5062032;28;20203;-66
2022/12/02 05:40:31;;;;;;;5.93;4.23;;;8.10;95.40;;;;;;5066599;28;20206;-66
2022/12/02 05:43:17;;;;;;;5.40;4.27;;;8.10;95.50;;;;;;5059260;28;20204;-67
2022/12/02 05:45:45;;;;;;;6.83;4.60;;;8.10;95.50;;;;;;5069589;28;20212;-66
2022/12/02 05:48:15;;;;;;;5.73;4.43;;;8.10;95.50;;;;;;5068987;28;20212;-66
2022/12/02 05:50:43;;;;;;;5.23;4.30;;;8.10;95.50;;;;;;5064751;28;20199;-66
2022/12/02 05:53:22;;;;;;;8.40;4.70;;;8.10;95.50;;;;;;5067518;28;20197;-66
2022/12/02 05:55:54;;;;;;;6.27;4.77;;;8.20;95.60;;;;;;5068738;28;20195;-66
2022/12/02 05:58:22;;;;;;;6.57;4.73;;;8.20;95.60;;;;;;5064042;28;20187;-66
2022/12/02 06:00:58;;;;;;;6.73;5.13;;;8.20;95.50;;;;;;5062895;28;20547;-67
2022/12/02 06:03:25;;;;;;;6.33;4.40;;;8.30;95.50;;;;;;5066890;28;20680;-66
2022/12/02 06:05:53;;;;;;;5.10;4.60;;;8.20;95.40;;;;;;5065424;28;20626;-66
2022/12/02 06:08:21;;;;;;;4.97;4.47;;;8.30;95.40;;;;;;5066949;28;20647;-66
2022/12/02 06:10:56;;;;;;;6.37;5.27;;;8.30;95.40;;;;;;5064762;28;20233;-66
2022/12/02 06:13:31;;;;;;;6.50;5.00;;;8.30;95.40;;;;;;5067561;28;20186;-66
2022/12/02 06:16:00;;;;;;;5.80;5.07;;;8.30;95.40;;;;;;5065694;28;20261;-66
2022/12/02 06:18:31;;;;;;;6.37;5.30;;;8.30;95.40;;;;;;5061509;28;20201;-66
2022/12/02 06:21:13;;;;;;;6.67;5.37;;;8.30;95.30;;;;;;5062055;28;20201;-66
2022/12/02 06:23:45;;;;;;;5.90;5.30;;;8.20;95.40;;;;;;5064330;28;20219;-66
2022/12/02 06:26:19;;;;;;;6.80;4.97;;;8.30;95.40;;;;;;5065025;28;20555;-66
2022/12/02 06:28:54;;;;;;;6.53;5.13;;;8.20;95.40;;;;;;5062443;28;20672;-66
2022/12/02 06:31:32;;;;;;;7.30;5.00;;;8.20;95.50;;;;;;5063888;28;20219;-66
2022/12/02 06:34:14;;;;;;;6.47;4.90;;;8.20;95.50;;;;;;5065312;28;20218;-67
2022/12/02 06:36:41;;;;;;;7.80;6.20;;;8.20;95.60;;;;;;5070760;28;20196;-66
2022/12/02 06:39:19;;;;;;;5.77;4.70;;;8.20;95.60;;;;;;5064626;28;20203;-66
2022/12/02 06:41:48;;;;;;;6.53;5.20;;;8.30;95.60;;;;;;5080773;28;20233;-66
2022/12/02 06:47:36;;;;;;;6.40;5.07;;;8.20;95.60;;;;;;5064620;28;20206;-66
2022/12/02 06:50:06;;;;;;;6.83;5.17;;;8.20;95.70;;;;;;5064349;28;20216;-66
2022/12/02 06:52:45;;;;;;;5.20;4.70;;;8.30;95.70;;;;;;5063825;28;20226;-66
2022/12/02 06:55:32;;;;;;;6.43;5.23;;;8.30;95.70;;;;;;5061718;28;20211;-66
2022/12/02 06:58:17;;;;;;;7.23;5.13;;;8.30;95.70;;;;;;5068058;28;20213;-66
2022/12/02 07:00:45;;;;;;;6.67;5.50;;;8.30;95.70;;;;;;5062420;28;20250;-66
2022/12/02 07:03:31;;;;;;;5.97;4.87;;;8.30;95.60;;;;;;5069515;28;20569;-66
2022/12/02 07:06:14;;;;;;;5.80;5.00;;;8.40;95.60;;;;;;5069163;28;20194;-66
2022/12/02 07:08:42;;;;;;;6.60;4.90;;;8.30;95.50;;;;;;5062489;28;20206;-66
2022/12/02 07:11:20;;;;;;;7.97;6.03;;;8.30;95.50;;;;;;5061057;28;20247;-66
2022/12/02 07:13:48;;;;;;;8.23;5.77;;;8.30;95.60;;;;;;5069536;28;20226;-66
2022/12/02 07:16:35;;;;;;;7.03;5.63;;;8.30;95.60;;;;;;5062455;28;20638;-66
2022/12/02 07:19:05;;;;;;;7.80;5.90;;;8.30;95.60;;;;;;5081029;28;20216;-66
2022/12/02 07:21:32;;;;;;;10.10;5.80;;;8.30;95.60;;;;;;5063198;28;20199;-66
2022/12/02 07:23:59;;;;;;;7.30;5.67;;;8.30;95.60;;;;;;5063159;28;20207;-66
2022/12/02 07:26:26;;;;;;;8.97;6.20;;;8.30;95.60;;;;;;5059282;28;20221;-66
2022/12/02 07:28:59;;;;;;;8.63;6.90;;;8.30;95.60;;;;;;5065720;28;20293;-66
2022/12/02 07:31:43;;;;;;;11.87;6.87;;;8.40;95.60;;;;;;5057097;28;20207;-67
2022/12/02 07:34:12;;;;;;;10.33;6.43;;;8.30;95.60;;;;;;5063345;28;20230;-66
2022/12/02 07:36:39;;;;;;;10.83;6.67;;;8.30;95.70;;;;;;5059326;28;20214;-66
2022/12/02 07:39:06;;;;;;;9.93;6.03;;;8.30;95.70;;;;;;5061991;28;20210;-66
2022/12/02 07:41:37;;;;;;;6.77;5.67;;;8.30;95.70;;;;;;5078258;28;20305;-66
2022/12/02 07:44:05;;;;;;;7.33;6.00;;;8.40;95.80;;;;;;5057833;28;20233;-66
2022/12/02 07:46:32;;;;;;;8.87;6.33;;;8.40;96.10;;;;;;5062685;28;20223;-67
2022/12/02 07:48:59;;;;;;;7.60;5.67;;;8.40;95.80;;;;;;5062639;28;20213;-66
2022/12/02 07:51:27;;;;;;;9.07;6.47;;;8.40;95.80;;;;;;5061334;28;20263;-66
2022/12/02 07:53:54;;;;;;;8.20;6.43;;;8.40;95.80;;;;;;5062326;28;20208;-66
2022/12/02 07:56:21;;;;;;;7.63;6.73;;;8.50;95.80;;;;;;5062163;28;20198;-66
2022/12/02 07:58:48;;;;;;;8.50;6.53;;;8.50;95.80;;;;;;5055509;28;20198;-66
2022/12/02 08:01:35;;;;;;;8.90;7.40;;;8.50;95.80;;;;;;5064047;28;20201;-66
2022/12/02 08:04:03;;;;;;;10.30;7.00;;;8.50;95.80;;;;;;5064728;28;20197;-66
2022/12/02 08:06:30;;;;;;;8.67;6.23;;;8.60;95.80;;;;;;5064770;28;20242;-66
2022/12/02 08:09:05;;;;;;;8.47;5.93;;;8.60;95.70;;;;;;5078563;28;20222;-67
2022/12/02 08:11:32;;;;;;;8.63;6.93;;;8.60;95.60;;;;;;5034735;28;1219254;-66
2022/12/02 08:13:59;;;;;;;15.53;6.20;;;8.60;95.50;;;;;;5062398;28;20550;-66
2022/12/02 08:16:26;;;;;;;10.00;6.60;;;8.70;95.60;;;;;;5066616;28;20202;-66
2022/12/02 08:18:54;;;;;;;9.60;6.53;;;8.80;95.50;;;;;;5066285;28;20194;-66
2022/12/02 08:21:21;;;;;;;8.53;5.63;;;9.00;95.60;;;;;;5060650;28;20646;-66
2022/12/02 08:23:48;;;;;;;8.97;5.60;;;9.10;95.30;;;;;;5061456;28;20200;-66
2022/12/02 08:26:15;;;;;;;9.10;5.40;;;9.20;95.10;;;;;;5064258;28;20289;-67
2022/12/02 08:28:42;;;;;;;6.37;5.27;;;9.20;94.20;;;;;;5065822;28;20257;-66
2022/12/02 08:31:09;;;;;;;11.23;5.33;;;9.20;93.90;;;;;;5064913;28;20602;-67
2022/12/02 08:33:36;;;;;;;6.07;4.80;;;9.20;94.00;;;;;;5061709;28;20200;-66
2022/12/02 08:36:04;;;;;;;10.27;5.03;;;9.10;94.00;;;;;;5063806;28;20202;-66
2022/12/02 08:38:31;;;;;;;5.77;5.03;;;9.10;93.90;;;;;;5063754;28;20198;-66
2022/12/02 08:40:58;;;;;;;8.77;5.87;;;9.20;94.00;;;;;;5060176;28;20225;-66
2022/12/02 08:43:25;;;;;;;6.50;4.77;;;9.20;93.60;;;;;;5059539;28;20288;-66
2022/12/02 08:45:52;;;;;;;7.67;5.23;;;9.20;93.70;;;;;;5063447;28;20203;-67
2022/12/02 08:48:19;;;;;;;5.87;4.23;;;9.20;93.70;;;;;;5062981;28;20265;-66
2022/12/02 08:50:47;;;;;;;6.33;4.93;;;9.20;93.60;;;;;;5061929;28;20198;-66
2022/12/02 08:53:14;;;;;;;7.17;5.23;;;9.10;93.30;;;;;;5063344;28;20199;-66
2022/12/02 08:55:41;;;;;;;7.17;4.70;;;9.10;93.30;;;;;;5063026;28;20513;-66
2022/12/02 08:58:08;;;;;;;5.53;4.27;;;9.10;93.40;;;;;;5063281;28;20521;-67
2022/12/02 09:00:35;;;;;;;5.57;4.43;;;9.00;93.30;;;;;;5063083;28;20811;-66
2022/12/02 09:03:06;;;;;;;5.40;4.40;;;9.00;93.20;;;;;;5061093;28;20207;-66
2022/12/02 09:05:34;;;;;;;6.13;4.33;;;9.00;93.20;;;;;;5063547;28;20206;-67
2022/12/02 09:08:02;;;;;;;5.80;4.47;;;9.00;93.20;;;;;;5062748;28;20203;-66
2022/12/02 09:10:30;;;;;;;6.57;4.53;;;9.00;93.30;;;;;;5058765;28;20778;-66
2022/12/02 09:12:57;;;;;;;4.53;4.10;;;9.00;93.40;;;;;;5058594;28;20202;-66
2022/12/02 09:15:24;;;;;;;6.17;4.60;;;9.00;93.50;;;;;;5060660;28;20224;-66
2022/12/02 09:17:51;;;;;;;5.00;4.23;;;9.00;93.20;;;;;;5063959;28;20206;-66
2022/12/02 09:20:18;;;;;;;5.37;4.63;;;9.10;93.20;;;;;;5062491;28;20625;-66
2022/12/02 09:22:46;;;;;;;6.07;3.90;;;9.10;93.30;;;;;;5064533;28;20290;-66
2022/12/02 09:25:14;;;;;;;6.03;4.47;;;9.20;93.40;;;;;;5065023;28;20217;-66
2022/12/02 09:27:41;;;;;;;4.70;3.80;;;9.20;93.30;;;;;;5056210;28;20524;-66
2022/12/02 09:30:09;;;;;;;5.53;4.43;;;9.30;92.90;;;;;;5060832;28;20197;-66
2022/12/02 09:32:37;;;;;;;5.37;4.43;;;9.30;92.60;;;;;;5059148;28;20206;-66
2022/12/02 09:35:04;;;;;;;5.50;4.17;;;9.30;92.70;;;;;;5062812;28;20273;-66
2022/12/02 09:37:31;;;;;;;5.43;4.13;;;9.40;92.80;;;;;;5063754;28;20210;-66
2022/12/02 09:39:59;;;;;;;4.40;3.90;;;9.50;92.80;;;;;;5061705;28;20199;-66
2022/12/02 09:42:27;;;;;;;6.87;4.47;;;9.50;92.80;;;;;;5065191;28;20613;-67
2022/12/02 09:44:54;;;;;;;5.33;4.20;;;9.60;92.90;;;;;;5062655;28;20204;-66
2022/12/02 09:47:23;;;;;;;4.47;3.60;;;9.60;92.80;;;;;;5066074;28;20525;-66
2022/12/02 09:49:51;;;;;;;8.27;3.87;;;9.70;92.60;;;;;;5059890;28;20555;-66
2022/12/02 09:52:23;;;;;;;5.60;4.27;;;9.70;92.30;;;;;;5062594;28;20222;-66
2022/12/02 09:54:57;;;;;;;5.47;3.70;;;9.70;92.20;;;;;;5060181;28;20231;-66
2022/12/02 09:57:29;;;;;;;4.93;4.13;;;9.70;92.10;;;;;;5061370;28;20200;-66
2022/12/02 10:00:13;;;;;;;4.93;4.00;;;9.70;92.10;;;;;;5061259;28;20223;-66
2022/12/02 10:02:44;;;;;;;4.50;4.07;;;9.70;92.10;;;;;;5080461;28;20215;-67
2022/12/02 10:05:11;;;;;;;5.37;3.63;;;9.70;92.10;;;;;;5065925;28;20289;-66
2022/12/02 10:07:38;;;;;;;4.87;3.50;;;9.60;92.20;;;;;;5062837;28;20209;-66
2022/12/02 10:10:09;;;;;;;4.47;3.60;;;9.60;92.00;;;;;;5057945;28;20243;-66
2022/12/02 10:12:36;;;;;;;5.23;3.47;;;9.60;92.00;;;;;;5059940;28;20205;-66
2022/12/02 10:15:04;;;;;;;3.67;3.07;;;9.60;92.10;;;;;;5063959;28;20228;-66
2022/12/02 10:17:31;;;;;;;4.10;2.93;;;9.60;92.10;;;;;;5062346;28;20197;-66
2022/12/02 10:19:58;;;;;;;3.60;3.10;;;9.60;92.10;;;;;;5056203;28;20207;-66
2022/12/02 10:22:25;;;;;;;3.63;2.80;;;9.60;91.80;;;;;;5065597;28;20190;-66
2022/12/02 10:24:52;;;;;;;3.77;3.33;;;9.60;91.80;;;;;;5061449;28;20287;-66
2022/12/02 10:27:29;;;;;;;4.07;3.53;;;9.60;91.80;;;;;;5069038;28;20283;-66
2022/12/02 10:30:17;;;;;;;3.60;2.97;;;9.60;91.80;;;;;;5067310;28;20280;-66
2022/12/02 10:32:59;;;;;;;3.70;2.90;;;9.60;91.70;;;;;;5067605;28;20289;-66
2022/12/02 10:35:49;;;;;;;4.60;3.33;;;9.60;91.70;;;;;;5072053;28;20220;-66
2022/12/02 10:38:39;;;;;;;3.30;2.67;;;9.60;91.60;;;;;;5061477;28;20229;-66
2022/12/02 10:41:18;;;;;;;4.03;2.90;;;9.60;91.40;;;;;;5048815;28;20203;-66
2022/12/02 10:43:51;;;;;;;4.93;3.23;;;9.70;91.30;;;;;;5066668;28;20671;-66
2022/12/02 10:46:22;;;;;;;3.77;3.30;;;9.70;91.20;;;;;;5063342;28;20563;-66
2022/12/02 10:48:49;;;;;;;6.47;3.30;;;9.80;91.10;;;;;;5064658;28;20203;-66
2022/12/02 10:51:19;;;;;;;3.30;3.00;;;9.90;91.20;;;;;;5068156;28;20271;-66
2022/12/02 10:53:50;;;;;;;4.70;3.10;;;10.00;90.90;;;;;;5062564;28;20203;-66
2022/12/02 10:56:22;;;;;;;3.73;3.43;;;10.00;90.80;;;;;;5067264;28;20220;-66
2022/12/02 10:58:50;;;;;;;3.40;3.10;;;10.10;90.80;;;;;;5062377;28;20202;-66
2022/12/02 11:01:21;;;;;;;5.17;3.03;;;10.20;90.40;;;;;;5065114;28;20193;-66
2022/12/02 11:03:49;;;;;;;3.43;2.83;;;10.20;90.30;;;;;;5065234;28;20217;-66
2022/12/02 11:06:19;;;;;;;3.37;3.07;;;10.40;90.00;;;;;;5060127;28;20223;-66
2022/12/02 11:08:48;;;;;;;4.50;2.90;;;10.40;89.30;;;;;;5060806;28;20218;-66
2022/12/02 11:11:17;;;;;;;4.60;3.73;;;10.40;88.40;;;;;;5062400;28;20322;-66
2022/12/02 11:13:54;;;;;;;4.47;3.17;;;10.50;88.40;;;;;;5059683;28;20281;-66
2022/12/02 11:16:27;;;;;;;4.13;3.37;;;10.50;88.20;;;;;;5058073;28;20235;-66
2022/12/02 11:19:21;;;;;;;3.93;3.30;;;10.40;88.20;;;;;;5062582;28;20205;-66
2022/12/02 11:21:49;;;;;;;4.50;3.60;;;10.40;89.50;;;;;;5063387;28;20227;-66
2022/12/02 11:24:22;;;;;;;3.60;3.10;;;10.40;88.70;;;;;;5063523;28;20194;-66
2022/12/02 11:26:58;;;;;;;5.67;3.33;;;10.40;88.80;;;;;;5062147;28;20221;-66
2022/12/02 11:29:26;;;;;;;5.87;3.50;;;10.50;89.40;;;;;;5062708;28;20321;-67
2022/12/02 11:32:21;;;;;;;4.03;3.37;;;10.50;89.00;;;;;;5065590;28;20204;-66
2022/12/02 11:34:52;;;;;;;3.50;2.93;;;10.50;89.10;;;;;;5060024;28;20211;-66
2022/12/02 11:37:44;;;;;;;5.03;2.80;;;10.50;88.70;;;;;;5067339;28;20620;-66
2022/12/02 11:40:14;;;;;;;5.50;3.87;;;10.40;88.00;;;;;;5065491;28;20206;-67
2022/12/02 11:42:43;;;;;;;3.83;3.50;;;10.40;88.40;;;;;;5065523;28;20205;-66
2022/12/02 11:45:36;;;;;;;3.90;3.37;;;10.30;88.80;;;;;;5068621;28;20200;-66
2022/12/02 11:48:14;;;;;;;4.23;3.83;;;10.40;89.40;;;;;;5057804;28;20543;-66
2022/12/02 11:50:42;;;;;;;9.00;4.00;;;10.40;89.50;;;;;;5058625;28;20218;-67
2022/12/02 11:53:19;;;;;;;5.10;4.50;;;10.40;89.50;;;;;;5064981;28;20206;-66
2022/12/02 11:55:48;;;;;;;3.87;3.57;;;10.40;89.50;;;;;;5066108;28;20251;-66
2022/12/02 11:58:18;;;;;;;4.70;4.17;;;10.40;89.60;;;;;;5063929;28;20191;-66
2022/12/02 12:01:14;;;;;;;5.20;4.50;;;10.50;89.60;;;;;;5064286;28;20208;-66
2022/12/02 12:03:43;;;;;;;5.20;3.73;;;10.50;89.70;;;;;;5067009;28;20266;-67
2022/12/02 12:06:22;;;;;;;4.50;3.80;;;10.50;89.80;;;;;;5067095;28;20204;-66
2022/12/02 12:08:52;;;;;;;5.57;4.10;;;10.60;89.80;;;;;;5059158;28;20207;-66
2022/12/02 12:11:36;;;;;;;5.70;4.90;;;10.60;89.90;;;;;;5059238;28;20239;-67
2022/12/02 12:14:12;;;;;;;5.27;4.20;;;10.70;90.00;;;;;;5064089;28;20255;-66
2022/12/02 12:16:41;;;;;;;6.70;4.67;;;10.70;89.60;;;;;;5063548;28;20215;-66
2022/12/02 12:19:18;;;;;;;5.93;5.23;;;10.70;89.60;;;;;;5061031;28;20227;-66
2022/12/02 12:22:30;;;;;;;6.50;5.63;;;10.70;89.60;;;;;;5057139;28;20186;-66
2022/12/02 12:25:43;;;;;;;8.50;6.27;;;10.70;89.50;;;;;;5059046;28;20205;-67
2022/12/02 12:28:33;;;;;;;7.33;6.47;;;10.70;89.50;;;;;;5065160;28;20279;-66
2022/12/02 12:31:14;;;;;;;7.47;6.27;;;10.70;89.40;;;;;;5064011;28;20539;-66
2022/12/02 12:33:49;;;;;;;9.20;7.30;;;10.70;89.10;;;;;;5071022;28;20208;-66
2022/12/02 12:36:44;;;;;;;9.30;7.27;;;10.70;89.00;;;;;;5057663;28;20208;-66
2022/12/02 12:39:19;;;;;;;9.20;6.83;;;10.70;89.20;;;;;;5058142;28;20215;-66
2022/12/02 12:41:59;;;;;;;8.90;7.17;;;10.70;89.40;;;;;;5064402;28;20248;-66
2022/12/02 12:44:41;;;;;;;7.37;6.37;;;10.70;89.50;;;;;;5063940;28;20211;-66
2022/12/02 12:47:32;;;;;;;7.53;6.53;;;10.60;89.50;;;;;;5061198;28;20270;-67
2022/12/02 12:50:10;;;;;;;8.67;6.97;;;10.60;89.60;;;;;;5061104;28;20591;-66
2022/12/02 12:52:58;;;;;;;7.80;7.00;;;10.60;89.50;;;;;;5052881;28;20258;-66
2022/12/02 12:55:30;;;;;;;7.13;6.10;;;10.60;89.10;;;;;;5068241;28;20304;-66
2022/12/02 12:58:16;;;;;;;6.13;5.53;;;10.60;88.90;;;;;;5060170;28;20192;-66
2022/12/02 13:01:14;;;;;;;5.97;5.10;;;10.60;89.10;;;;;;5036696;28;20218;-67
2022/12/02 13:04:11;;;;;;;7.20;5.53;;;10.60;89.30;;;;;;5065025;28;20192;-66
2022/12/02 13:06:47;;;;;;;6.17;4.70;;;10.60;89.70;;;;;;5061483;28;20295;-66
2022/12/02 13:09:26;;;;;;;4.80;4.30;;;10.50;89.90;;;;;;5060253;28;20297;-66
2022/12/02 13:29:00;;;;;;;6.70;5.47;;;10.20;90.30;;;;;;5062095;28;20322;-66
2022/12/02 13:31:27;;;;;;;5.47;4.90;;;10.20;90.40;;;;;;5059383;28;20214;-67
2022/12/02 13:33:55;;;;;;;6.67;5.57;;;10.20;90.50;;;;;;5066216;28;20501;-66